Dycusburg, Kentucky
Current Conditions -  °F | °C
As of 9:35 AM on Thursday 23 Oct 2014 (Local Time) from K5M9 Reporting Station
Clear Clear  
Wind Chill: 46°   Ceiling: Unl
Heat Index: 49°   Visibility: 10mi
Dew Point: 43°   Wind: 7mph
Humidity: 79%   Direction: 110°ESE
Pressure: 30.24"   Gusts: NA
Location:  37.16°N, 88.18°W
Report Text: K5M9 231435Z AUTO 11006KT 10SM CLR 10/06 A3024 RMK AO2 T00960061
Loading
Personal Weather Stations






























Interactive Weather Map
Tropical Storm Tracking
New forecast layout! Learn more

10-Day Weather Forecast

Advertisements
Track Severe Weather on mobile